Puerto Banus, Marbella

>

This is an optional block (switch it off / on) in the settings - file ($SITE['banners'] = false;)

You can display ads, any other important text or photo’s using text / html or PHP code.

You can place one or more at the top and or bottom and it can all be different for content / size .



Meteosat more information blitzortung!


Radar lluvias  rain snow radar


Visita nuestra red de sitios de meteo:

Documentation for the template used

MeteoibericaRed estaciones Meteorologicas

MeteoclimaticRed estaciones Meteorologicas



Sin Advertencias climatologicas .En este momento tenemos Nivel Verde.    No hay Alarmas

Pagina Historial Weather Underground texto

Diario Resumen January 2, 2018 Unidades:  Tanto    impérial   Métrico
« Anterior Dia
Siguiente Dia »
Diario Semana Mensual Anual Personalizada
  Maxima: Minima: Media:
Temperatura: 68.4 °F /  20.2 °C 50 °F /  10.0 °C 57.6 °F /  14.2 °C
Punto de rocío: 53.8 °F /  12.1 °C 35.2 °F /  1.8 °C 43.9 °F /  6.6 °C
Humedad: 74 % 45 % 60 %
Velocidad del Viento: 19.6 mph /  31.5 km/h - 4.7 mph /  7.6 km/h
Ráfagas de viento: 19.6 mph /  31.5 km/h - -
Viento:- - WSW
Pression baro: 30.5 in /  1032.7 hPa 30.4 in /  1029.3 hPa -
Précipitaciones: 0 in /  0.0 mm    
Historical Graphs
 
 
Datos de tabla para January 2, 2018
Tiempo Temperatura Punto de rocío Pression baro Viento Velocidad del Viento Ráfagas de viento Humedad Las precipitaciones Rate ( Hora )
00:00 56.8 °F /  13.8 °C 38.3 °F /  3.5 °C 30.5 in /  1032.7 hPa NNW 2.3 mph /  3.7 km/h 2.3 mph /  3.7 km/h 50 % 0 in /  0.0 mm
00:01 56.8 °F /  13.8 °C 38.8 °F /  3.8 °C 30.5 in /  1032.7 hPa NNW 4 mph /  6.4 km/h 4 mph /  6.4 km/h 51 % 0 in /  0.0 mm
00:06 56.5 °F /  13.6 °C 40.5 °F /  4.7 °C 30.5 in /  1032.7 hPa WSW 4.6 mph /  7.4 km/h 4.6 mph /  7.4 km/h 55 % 0 in /  0.0 mm
00:09 56.5 °F /  13.6 °C 40.5 °F /  4.7 °C 30.5 in /  1032.7 hPa WSW 3.5 mph /  5.6 km/h 3.5 mph /  5.6 km/h 55 % 0 in /  0.0 mm
00:11 56.1 °F /  13.4 °C 39.7 °F /  4.3 °C 30.5 in /  1032.7 hPa WSW 3.5 mph /  5.6 km/h 3.5 mph /  5.6 km/h 54 % 0 in /  0.0 mm
00:16 55.9 °F /  13.3 °C 37.6 °F /  3.1 °C 30.5 in /  1032.7 hPa WSW 1.2 mph /  1.9 km/h   50 % 0 in /  0.0 mm
00:17 55.9 °F /  13.3 °C 37.6 °F /  3.1 °C 30.5 in /  1032.7 hPa Calm     50 % 0 in /  0.0 mm
00:21 55.9 °F /  13.3 °C 36.5 °F /  2.5 °C 30.5 in /  1032.7 hPa Calm     48 % 0 in /  0.0 mm
00:24 55.9 °F /  13.3 °C 36 °F /  2.2 °C 30.5 in /  1032.4 hPa WSW 1.2 mph /  1.9 km/h   47 % 0 in /  0.0 mm
00:27 55.8 °F /  13.2 °C 35.2 °F /  1.8 °C 30.5 in /  1032.4 hPa Calm     46 % 0 in /  0.0 mm
00:30 55.9 °F /  13.3 °C 36 °F /  2.2 °C 30.5 in /  1032.7 hPa WSW 2.3 mph /  3.7 km/h 2.3 mph /  3.7 km/h 47 % 0 in /  0.0 mm
00:32 55.9 °F /  13.3 °C 36.5 °F /  2.5 °C 30.5 in /  1032.4 hPa WSW 2.3 mph /  3.7 km/h 2.3 mph /  3.7 km/h 48 % 0 in /  0.0 mm
00:37 55.2 °F /  12.9 °C 36 °F /  2.2 °C 30.5 in /  1032.4 hPa North 5 mph /  8.0 km/h 5 mph /  8.0 km/h 48 % 0 in /  0.0 mm
00:39 54.9 °F /  12.7 °C 36 °F /  2.2 °C 30.5 in /  1032.4 hPa North 4.6 mph /  7.4 km/h 4.6 mph /  7.4 km/h 49 % 0 in /  0.0 mm
00:42 54.1 °F /  12.3 °C 36 °F /  2.2 °C 30.5 in /  1032.4 hPa North 6.9 mph /  11.1 km/h 6.9 mph /  11.1 km/h 50 % 0 in /  0.0 mm
00:47 53.8 °F /  12.1 °C 36.1 °F /  2.3 °C 30.5 in /  1032.4 hPa North 5 mph /  8.0 km/h 5 mph /  8.0 km/h 51 % 0 in /  0.0 mm
00:48 53.8 °F /  12.1 °C 36.1 °F /  2.3 °C 30.5 in /  1032.4 hPa North 6.9 mph /  11.1 km/h 6.9 mph /  11.1 km/h 51 % 0 in /  0.0 mm
00:53 53.6 °F /  12.0 °C 36.3 °F /  2.4 °C 30.5 in /  1032.4 hPa NNW 8.1 mph /  13.0 km/h 8.1 mph /  13.0 km/h 52 % 0 in /  0.0 mm
00:55 53.4 °F /  11.9 °C 36.1 °F /  2.3 °C 30.5 in /  1032.4 hPa NNW 8.1 mph /  13.0 km/h 8.1 mph /  13.0 km/h 52 % 0 in /  0.0 mm
01:00 53.4 °F /  11.9 °C 36.1 °F /  2.3 °C 30.5 in /  1032.1 hPa NNW 5.8 mph /  9.3 km/h 5.8 mph /  9.3 km/h 52 % 0 in /  0.0 mm
01:01 53.4 °F /  11.9 °C 36.3 °F /  2.4 °C 30.5 in /  1032.4 hPa NNW 5.8 mph /  9.3 km/h 5.8 mph /  9.3 km/h 52 % 0 in /  0.0 mm
01:06 53.8 °F /  12.1 °C 36.5 °F /  2.5 °C 30.5 in /  1032.4 hPa NW 4.6 mph /  7.4 km/h 4.6 mph /  7.4 km/h 52 % 0 in /  0.0 mm
01:11 54 °F /  12.2 °C 36.1 °F /  2.3 °C 30.5 in /  1032.1 hPa NNW 3.5 mph /  5.6 km/h 3.5 mph /  5.6 km/h 51 % 0 in /  0.0 mm
01:16 54 °F /  12.2 °C 36.3 °F /  2.4 °C 30.5 in /  1032.4 hPa NNW 5 mph /  8.0 km/h 5 mph /  8.0 km/h 51 % 0 in /  0.0 mm
01:18 54 °F /  12.2 °C 36.1 °F /  2.3 °C 30.5 in /  1032.1 hPa North 6.9 mph /  11.1 km/h 6.9 mph /  11.1 km/h 51 % 0 in /  0.0 mm
01:22 53.6 °F /  12.0 °C 36 °F /  2.2 °C 30.5 in /  1032.1 hPa NNW 8.1 mph /  13.0 km/h 8.1 mph /  13.0 km/h 51 % 0 in /  0.0 mm
01:23 53.6 °F /  12.0 °C 36 °F /  2.2 °C 30.5 in /  1032.1 hPa NNW 8.1 mph /  13.0 km/h 8.1 mph /  13.0 km/h 51 % 0 in /  0.0 mm
01:28 53.8 °F /  12.1 °C 36.5 °F /  2.5 °C 30.5 in /  1032.1 hPa NNW 5.8 mph /  9.3 km/h 5.8 mph /  9.3 km/h 52 % 0 in /  0.0 mm
01:29 53.8 °F /  12.1 °C 36.5 °F /  2.5 °C 30.5 in /  1032.1 hPa NNW 4.6 mph /  7.4 km/h 4.6 mph /  7.4 km/h 52 % 0 in /  0.0 mm
01:31 53.6 °F /  12.0 °C 36.3 °F /  2.4 °C 30.5 in /  1032.1 hPa NNW 6.9 mph /  11.1 km/h 6.9 mph /  11.1 km/h 52 % 0 in /  0.0 mm
01:34 53.8 °F /  12.1 °C 36.5 °F /  2.5 °C 30.5 in /  1032.1 hPa NNW 5.8 mph /  9.3 km/h 5.8 mph /  9.3 km/h 52 % 0 in /  0.0 mm
01:39 53.8 °F /  12.1 °C 36.7 °F /  2.6 °C 30.5 in /  1032.1 hPa NNW 4.6 mph /  7.4 km/h 4.6 mph /  7.4 km/h 52 % 0 in /  0.0 mm
01:41 53.8 °F /  12.1 °C 36.7 °F /  2.6 °C 30.5 in /  1032.1 hPa NNW 4.6 mph /  7.4 km/h 4.6 mph /  7.4 km/h 52 % 0 in /  0.0 mm
01:46 53.8 °F /  12.1 °C 37 °F /  2.8 °C 30.5 in /  1031.7 hPa NNW 5.8 mph /  9.3 km/h 5.8 mph /  9.3 km/h 53 % 0 in /  0.0 mm
01:47 53.8 °F /  12.1 °C 37 °F /  2.8 °C 30.5 in /  1031.7 hPa NNW 5.8 mph /  9.3 km/h 5.8 mph /  9.3 km/h 53 % 0 in /  0.0 mm
01:50 53.8 °F /  12.1 °C 37 °F /  2.8 °C 30.5 in /  1032.1 hPa NNW 3.5 mph /  5.6 km/h 3.5 mph /  5.6 km/h 53 % 0 in /  0.0 mm
01:52 54 °F /  12.2 °C 38.1 °F /  3.4 °C 30.5 in /  1032.1 hPa WSW 3.5 mph /  5.6 km/h 3.5 mph /  5.6 km/h 55 % 0 in /  0.0 mm
01:56 54.1 °F /  12.3 °C 38.7 °F /  3.7 °C 30.5 in /  1032.1 hPa WSW 2.3 mph /  3.7 km/h 2.3 mph /  3.7 km/h 56 % 0 in /  0.0 mm
01:58 54 °F /  12.2 °C 38.7 °F /  3.7 °C 30.5 in /  1032.1 hPa WNW 3.5 mph /  5.6 km/h 3.5 mph /  5.6 km/h 56 % 0 in /  0.0 mm
02:03 54 °F /  12.2 °C 37.8 °F /  3.2 °C 30.5 in /  1031.7 hPa NW 2.3 mph /  3.7 km/h 2.3 mph /  3.7 km/h 54 % 0 in /  0.0 mm
02:05 54.1 °F /  12.3 °C 37.8 °F /  3.2 °C 30.5 in /  1031.7 hPa Calm     54 % 0 in /  0.0 mm
02:09 54 °F /  12.2 °C 37.8 °F /  3.2 °C 30.5 in /  1031.7 hPa NW 2.3 mph /  3.7 km/h 2.3 mph /  3.7 km/h 54 % 0 in /  0.0 mm
02:10 54 °F /  12.2 °C 37.8 °F /  3.2 °C 30.5 in /  1031.7 hPa NW 2.3 mph /  3.7 km/h 2.3 mph /  3.7 km/h 54 % 0 in /  0.0 mm
02:15 54 °F /  12.2 °C 38.1 °F /  3.4 °C 30.5 in /  1031.7 hPa NW 2.3 mph /  3.7 km/h 2.3 mph /  3.7 km/h 55 % 0 in /  0.0 mm
02:16 54 °F /  12.2 °C 38.1 °F /  3.4 °C 30.5 in /  1031.7 hPa NW 2.3 mph /  3.7 km/h 2.3 mph /  3.7 km/h 55 % 0 in /  0.0 mm
02:21 53.8 °F /  12.1 °C 38.8 °F /  3.8 °C 30.5 in /  1031.7 hPa WSW 4.6 mph /  7.4 km/h 4.6 mph /  7.4 km/h 57 % 0 in /  0.0 mm
02:23 53.8 °F /  12.1 °C 38.5 °F /  3.6 °C 30.5 in /  1031.7 hPa WSW 3.5 mph /  5.6 km/h 3.5 mph /  5.6 km/h 56 % 0 in /  0.0 mm
02:27 54 °F /  12.2 °C 38.7 °F /  3.7 °C 30.5 in /  1031.7 hPa NW 5 mph /  8.0 km/h 5 mph /  8.0 km/h 56 % 0 in /  0.0 mm
02:30 54.3 °F /  12.4 °C 37.9 °F /  3.3 °C 30.5 in /  1031.7 hPa WNW 6.9 mph /  11.1 km/h 6.9 mph /  11.1 km/h 54 % 0 in /  0.0 mm
02:33 54.9 °F /  12.7 °C 38.1 °F /  3.4 °C 30.5 in /  1031.7 hPa WNW 4 mph /  6.4 km/h 4 mph /  6.4 km/h 53 % 0 in /  0.0 mm
02:37 55.2 °F /  12.9 °C 38.5 °F /  3.6 °C 30.5 in /  1031.7 hPa NW 3 mph /  4.8 km/h 3 mph /  4.8 km/h 53 % 0 in /  0.0 mm
02:38 55.2 °F /  12.9 °C 38.5 °F /  3.6 °C 30.5 in /  1031.7 hPa NW 3.5 mph /  5.6 km/h 3.5 mph /  5.6 km/h 53 % 0 in /  0.0 mm
02:43 54 °F /  12.2 °C 38.7 °F /  3.7 °C 30.5 in /  1031.7 hPa North 3.5 mph /  5.6 km/h 3.5 mph /  5.6 km/h 56 % 0 in /  0.0 mm
02:48 52.3 °F /  11.3 °C 38.5 °F /  3.6 °C 30.5 in /  1031.7 hPa NE 3.5 mph /  5.6 km/h 3.7 mph /  6.0 km/h 59 % 0 in /  0.0 mm
02:53 52 °F /  11.1 °C 38.5 °F /  3.6 °C 30.5 in /  1031.7 hPa NE 3.5 mph /  5.6 km/h 3.5 mph /  5.6 km/h 60 % 0 in /  0.0 mm
02:54 51.8 °F /  11.0 °C 38.3 °F /  3.5 °C 30.5 in /  1031.7 hPa NE 2.3 mph /  3.7 km/h 2.3 mph /  3.7 km/h 60 % 0 in /  0.0 mm
02:59 52 °F /  11.1 °C 38.1 °F /  3.4 °C 30.5 in /  1031.7 hPa NNE 3.5 mph /  5.6 km/h 3.5 mph /  5.6 km/h 59 % 0 in /  0.0 mm
03:04 52.2 °F /  11.2 °C 38.7 °F /  3.7 °C 30.5 in /  1031.7 hPa NNE 3.5 mph /  5.6 km/h 3.5 mph /  5.6 km/h 60 % 0 in /  0.0 mm
03:05 52.2 °F /  11.2 °C 38.7 °F /  3.7 °C 30.5 in /  1031.7 hPa NNE 3.5 mph /  5.6 km/h 3.5 mph /  5.6 km/h 60 % 0 in /  0.0 mm
03:09 52.2 °F /  11.2 °C 38.7 °F /  3.7 °C 30.5 in /  1032.1 hPa North 3.5 mph /  5.6 km/h 3.5 mph /  5.6 km/h 60 % 0 in /  0.0 mm
03:11 52.2 °F /  11.2 °C 38.7 °F /  3.7 °C 30.5 in /  1032.1 hPa North 3.5 mph /  5.6 km/h 3.5 mph /  5.6 km/h 60 % 0 in /  0.0 mm
03:16 51.6 °F /  10.9 °C 38.3 °F /  3.5 °C 30.5 in /  1032.1 hPa North 3.5 mph /  5.6 km/h 3.5 mph /  5.6 km/h 60 % 0 in /  0.0 mm
03:19 51.4 °F /  10.8 °C 38.5 °F /  3.6 °C 30.5 in /  1032.1 hPa North 4.6 mph /  7.4 km/h 4.6 mph /  7.4 km/h 61 % 0 in /  0.0 mm
03:23 51.3 °F /  10.7 °C 38.3 °F /  3.5 °C 30.5 in /  1032.1 hPa North 4.6 mph /  7.4 km/h 4.6 mph /  7.4 km/h 61 % 0 in /  0.0 mm
03:28 51.6 °F /  10.9 °C 38.3 °F /  3.5 °C 30.5 in /  1032.1 hPa NNW 4.6 mph /  7.4 km/h 4.6 mph /  7.4 km/h 60 % 0 in /  0.0 mm
03:30 51.8 °F /  11.0 °C 38.3 °F /  3.5 °C 30.5 in /  1032.1 hPa NNW 3.5 mph /  5.6 km/h 3.7 mph /  6.0 km/h 60 % 0 in /  0.0 mm
03:33 52.2 °F /  11.2 °C 38.7 °F /  3.7 °C 30.5 in /  1032.1 hPa NNW 3.5 mph /  5.6 km/h 3.5 mph /  5.6 km/h 60 % 0 in /  0.0 mm
03:38 52.5 °F /  11.4 °C 39 °F /  3.9 °C 30.5 in /  1032.1 hPa NNW 3 mph /  4.8 km/h 3 mph /  4.8 km/h 60 % 0 in /  0.0 mm
03:39 52.5 °F /  11.4 °C 39 °F /  3.9 °C 30.5 in /  1032.1 hPa NNW 3 mph /  4.8 km/h 3 mph /  4.8 km/h 60 % 0 in /  0.0 mm
03:43 53.1 °F /  11.7 °C 39.6 °F /  4.2 °C 30.5 in /  1032.1 hPa NNW 3.5 mph /  5.6 km/h 3.5 mph /  5.6 km/h 60 % 0 in /  0.0 mm
03:44 53.1 °F /  11.7 °C 39.6 °F /  4.2 °C 30.5 in /  1032.1 hPa NNW 4 mph /  6.4 km/h 4 mph /  6.4 km/h 60 % 0 in /  0.0 mm
03:49 53.2 °F /  11.8 °C 39.4 °F /  4.1 °C 30.5 in /  1032.1 hPa NNW 2.3 mph /  3.7 km/h 2.3 mph /  3.7 km/h 59 % 0 in /  0.0 mm
03:51 53.4 °F /  11.9 °C 39 °F /  3.9 °C 30.5 in /  1032.1 hPa NNW 4.6 mph /  7.4 km/h 4.6 mph /  7.4 km/h 58 % 0 in /  0.0 mm
03:56 53.1 °F /  11.7 °C 39 °F /  3.9 °C 30.5 in /  1032.1 hPa NNW 4.6 mph /  7.4 km/h 4.6 mph /  7.4 km/h 59 % 0 in /  0.0 mm
04:01 52.5 °F /  11.4 °C 38.7 °F /  3.7 °C 30.5 in /  1031.7 hPa NNW 5.8 mph /  9.3 km/h 5.8 mph /  9.3 km/h 59 % 0 in /  0.0 mm
04:02 52.5 °F /  11.4 °C 38.7 °F /  3.7 °C 30.5 in /  1031.7 hPa NNW 5.8 mph /  9.3 km/h 5.8 mph /  9.3 km/h 59 % 0 in /  0.0 mm
04:04 52.5 °F /  11.4 °C 38.7 °F /  3.7 °C 30.5 in /  1031.7 hPa NNW 5.8 mph /  9.3 km/h 5.8 mph /  9.3 km/h 59 % 0 in /  0.0 mm
04:09 52.7 °F /  11.5 °C 38.8 °F /  3.8 °C 30.5 in /  1031.7 hPa North 4.6 mph /  7.4 km/h 4.6 mph /  7.4 km/h 59 % 0 in /  0.0 mm
04:15 52.5 °F /  11.4 °C 38.7 °F /  3.7 °C 30.5 in /  1031.7 hPa NNW 3 mph /  4.8 km/h 6 mph /  9.7 km/h 59 % 0 in /  0.0 mm
04:19 52.5 °F /  11.4 °C 38.7 °F /  3.7 °C 30.5 in /  1031.7 hPa NNW 3.5 mph /  5.6 km/h 3.5 mph /  5.6 km/h 59 % 0 in /  0.0 mm
04:24 52.9 °F /  11.6 °C 38.5 °F /  3.6 °C 30.5 in /  1031.7 hPa NW 5.8 mph /  9.3 km/h 5.8 mph /  9.3 km/h 58 % 0 in /  0.0 mm
04:29 52.2 °F /  11.2 °C 38.3 °F /  3.5 °C 30.5 in /  1031.7 hPa NNW 8.1 mph /  13.0 km/h 8.1 mph /  13.0 km/h 59 % 0 in /  0.0 mm
04:33 52 °F /  11.1 °C 38.5 °F /  3.6 °C 30.5 in /  1031.7 hPa NNW 5 mph /  8.0 km/h 5 mph /  8.0 km/h 60 % 0 in /  0.0 mm
04:38 52 °F /  11.1 °C 38.5 °F /  3.6 °C 30.5 in /  1031.7 hPa NNW 4.6 mph /  7.4 km/h 4.6 mph /  7.4 km/h 60 % 0 in /  0.0 mm
04:42 51.8 °F /  11.0 °C 38.8 °F /  3.8 °C 30.5 in /  1031.7 hPa North 5 mph /  8.0 km/h 5 mph /  8.0 km/h 61 % 0 in /  0.0 mm
04:43 51.8 °F /  11.0 °C 38.8 °F /  3.8 °C 30.5 in /  1031.7 hPa North 6 mph /  9.7 km/h 6 mph /  9.7 km/h 61 % 0 in /  0.0 mm
04:48 51.1 °F /  10.6 °C 38.1 °F /  3.4 °C 30.5 in /  1031.7 hPa North 5.8 mph /  9.3 km/h 5.8 mph /  9.3 km/h 61 % 0 in /  0.0 mm
04:49 51.1 °F /  10.6 °C 38.1 °F /  3.4 °C 30.5 in /  1031.7 hPa NNW 7 mph /  11.3 km/h 7 mph /  11.3 km/h 61 % 0 in /  0.0 mm
04:50 51.1 °F /  10.6 °C 37.9 °F /  3.3 °C 30.5 in /  1031.7 hPa NW 8.1 mph /  13.0 km/h 8.1 mph /  13.0 km/h 61 % 0 in /  0.0 mm
04:55 51.4 °F /  10.8 °C 38.5 °F /  3.6 °C 30.5 in /  1031.7 hPa NNE 7 mph /  11.3 km/h 7 mph /  11.3 km/h 61 % 0 in /  0.0 mm
04:56 51.4 °F /  10.8 °C 38.5 °F /  3.6 °C 30.5 in /  1031.7 hPa North 7 mph /  11.3 km/h 7 mph /  11.3 km/h 61 % 0 in /  0.0 mm
05:01 50.9 °F /  10.5 °C 38.7 °F /  3.7 °C 30.5 in /  1031.7 hPa NNW 8.1 mph /  13.0 km/h 8.1 mph /  13.0 km/h 63 % 0 in /  0.0 mm
05:02 50.7 °F /  10.4 °C 38.7 °F /  3.7 °C 30.5 in /  1031.7 hPa North 9 mph /  14.5 km/h 9 mph /  14.5 km/h 63 % 0 in /  0.0 mm
05:08 50.4 °F /  10.2 °C 39 °F /  3.9 °C 30.5 in /  1031.4 hPa NNW 9.2 mph /  14.8 km/h 9.2 mph /  14.8 km/h 65 % 0 in /  0.0 mm
05:13 50.5 °F /  10.3 °C 38.8 °F /  3.8 °C 30.5 in /  1031.4 hPa NNW 9.2 mph /  14.8 km/h 9.2 mph /  14.8 km/h 64 % 0 in /  0.0 mm
05:18 51.1 °F /  10.6 °C 39.2 °F /  4.0 °C 30.5 in /  1031.4 hPa North 8.1 mph /  13.0 km/h 8.1 mph /  13.0 km/h 64 % 0 in /  0.0 mm
05:19 51.3 °F /  10.7 °C 39 °F /  3.9 °C 30.5 in /  1031.4 hPa North 10.4 mph /  16.7 km/h 10.4 mph /  16.7 km/h 63 % 0 in /  0.0 mm
05:24 51.4 °F /  10.8 °C 39.2 °F /  4.0 °C 30.5 in /  1031.4 hPa NNW 8.1 mph /  13.0 km/h 8.1 mph /  13.0 km/h 63 % 0 in /  0.0 mm
05:26 51.4 °F /  10.8 °C 39.4 °F /  4.1 °C 30.5 in /  1031.4 hPa NNW 6.9 mph /  11.1 km/h 6.9 mph /  11.1 km/h 63 % 0 in /  0.0 mm
05:34 51.6 °F /  10.9 °C 38.7 °F /  3.7 °C 30.5 in /  1031.4 hPa North 6.9 mph /  11.1 km/h 6.9 mph /  11.1 km/h 61 % 0 in /  0.0 mm
05:35 51.6 °F /  10.9 °C 38.7 °F /  3.7 °C 30.4 in /  1031.0 hPa North 6.9 mph /  11.1 km/h 6.9 mph /  11.1 km/h 61 % 0 in /  0.0 mm
05:40 51.1 °F /  10.6 °C 38.8 °F /  3.8 °C 30.5 in /  1031.4 hPa North 8.1 mph /  13.0 km/h 8.1 mph /  13.0 km/h 63 % 0 in /  0.0 mm
05:41 51.1 °F /  10.6 °C 38.8 °F /  3.8 °C 30.5 in /  1031.4 hPa NNW 9.2 mph /  14.8 km/h 9.2 mph /  14.8 km/h 63 % 0 in /  0.0 mm
05:48 51.1 °F /  10.6 °C 38.8 °F /  3.8 °C 30.4 in /  1031.0 hPa NNW 6.9 mph /  11.1 km/h 6.9 mph /  11.1 km/h 63 % 0 in /  0.0 mm
05:56 51.1 °F /  10.6 °C 38.8 °F /  3.8 °C 30.4 in /  1031.0 hPa North 8.1 mph /  13.0 km/h 8.1 mph /  13.0 km/h 63 % 0 in /  0.0 mm
06:00 50.5 °F /  10.3 °C 38.8 °F /  3.8 °C 30.4 in /  1031.0 hPa NNW 6.9 mph /  11.1 km/h 6.9 mph /  11.1 km/h 64 % 0 in /  0.0 mm
06:02 50.5 °F /  10.3 °C 38.8 °F /  3.8 °C 30.4 in /  1031.0 hPa NNW 8.1 mph /  13.0 km/h 8.1 mph /  13.0 km/h 64 % 0 in /  0.0 mm
06:07 50.4 °F /  10.2 °C 38.7 °F /  3.7 °C 30.4 in /  1031.0 hPa North 6.9 mph /  11.1 km/h 6.9 mph /  11.1 km/h 64 % 0 in /  0.0 mm
06:08 50.4 °F /  10.2 °C 38.7 °F /  3.7 °C 30.4 in /  1031.0 hPa North 9.2 mph /  14.8 km/h 9.2 mph /  14.8 km/h 64 % 0 in /  0.0 mm
06:12 50.4 °F /  10.2 °C 38.7 °F /  3.7 °C 30.4 in /  1031.0 hPa NNW 8.1 mph /  13.0 km/h 8.1 mph /  13.0 km/h 64 % 0 in /  0.0 mm
06:13 50.4 °F /  10.2 °C 39 °F /  3.9 °C 30.4 in /  1031.0 hPa North 8 mph /  12.9 km/h 8 mph /  12.9 km/h 65 % 0 in /  0.0 mm
06:18 50.2 °F /  10.1 °C 38.8 °F /  3.8 °C 30.4 in /  1031.0 hPa NNW 8.1 mph /  13.0 km/h 8.1 mph /  13.0 km/h 65 % 0 in /  0.0 mm
06:20 50 °F /  10.0 °C 38.7 °F /  3.7 °C 30.4 in /  1031.0 hPa NNW 8.1 mph /  13.0 km/h 8.1 mph /  13.0 km/h 65 % 0 in /  0.0 mm
06:21 50.2 °F /  10.1 °C 38.8 °F /  3.8 °C 30.4 in /  1031.0 hPa NNW 6.9 mph /  11.1 km/h 6.9 mph /  11.1 km/h 65 % 0 in /  0.0 mm
06:26 50.2 °F /  10.1 °C 38.8 °F /  3.8 °C 30.4 in /  1031.0 hPa North 6 mph /  9.7 km/h 6 mph /  9.7 km/h 65 % 0 in /  0.0 mm
06:30 50.2 °F /  10.1 °C 38.8 °F /  3.8 °C 30.4 in /  1031.0 hPa NNW 5.8 mph /  9.3 km/h 5.8 mph /  9.3 km/h 65 % 0 in /  0.0 mm
06:35 50.4 °F /  10.2 °C 39 °F /  3.9 °C 30.4 in /  1031.0 hPa NNW 6.9 mph /  11.1 km/h 6.9 mph /  11.1 km/h 65 % 0 in /  0.0 mm
06:40 50.4 °F /  10.2 °C 39 °F /  3.9 °C 30.4 in /  1031.0 hPa NNW 8.1 mph /  13.0 km/h 8.1 mph /  13.0 km/h 65 % 0 in /  0.0 mm
06:41 50.4 °F /  10.2 °C 39 °F /  3.9 °C 30.4 in /  1031.0 hPa NNW 8.1 mph /  13.0 km/h 8.1 mph /  13.0 km/h 65 % 0 in /  0.0 mm
06:43 50.5 °F /  10.3 °C 39.2 °F /  4.0 °C 30.4 in /  1031.0 hPa North 4.6 mph /  7.4 km/h 4.6 mph /  7.4 km/h 65 % 0 in /  0.0 mm
06:48 50.4 °F /  10.2 °C 39 °F /  3.9 °C 30.4 in /  1031.0 hPa NNW 7 mph /  11.3 km/h 7 mph /  11.3 km/h 65 % 0 in /  0.0 mm
06:53 50 °F /  10.0 °C 38.7 °F /  3.7 °C 30.4 in /  1031.0 hPa NNW 6.9 mph /  11.1 km/h 6.9 mph /  11.1 km/h 65 % 0 in /  0.0 mm
06:58 50 °F /  10.0 °C 38.7 °F /  3.7 °C 30.4 in /  1031.0 hPa North 5 mph /  8.0 km/h 5 mph /  8.0 km/h 65 % 0 in /  0.0 mm
06:59 50.2 °F /  10.1 °C 38.8 °F /  3.8 °C 30.4 in /  1031.0 hPa North 8 mph /  12.9 km/h 8 mph /  12.9 km/h 65 % 0 in /  0.0 mm
07:03 50.4 °F /  10.2 °C 39 °F /  3.9 °C 30.4 in /  1031.0 hPa North 7 mph /  11.3 km/h 7 mph /  11.3 km/h 65 % 0 in /  0.0 mm
07:08 50.5 °F /  10.3 °C 38.8 °F /  3.8 °C 30.5 in /  1031.4 hPa NNW 6.9 mph /  11.1 km/h 6.9 mph /  11.1 km/h 64 % 0 in /  0.0 mm
07:09 50.7 °F /  10.4 °C 39 °F /  3.9 °C 30.4 in /  1031.0 hPa North 6 mph /  9.7 km/h 6 mph /  9.7 km/h 64 % 0 in /  0.0 mm
07:14 51.1 °F /  10.6 °C 38.8 °F /  3.8 °C 30.5 in /  1031.4 hPa NNE 7 mph /  11.3 km/h 7 mph /  11.3 km/h 63 % 0 in /  0.0 mm
07:17 50.9 °F /  10.5 °C 38.7 °F /  3.7 °C 30.5 in /  1031.4 hPa NNW 11.5 mph /  18.5 km/h 11.5 mph /  18.5 km/h 63 % 0 in /  0.0 mm
07:19 50.5 °F /  10.3 °C 38.8 °F /  3.8 °C 30.5 in /  1031.4 hPa NW 6.9 mph /  11.1 km/h 6.9 mph /  11.1 km/h 64 % 0 in /  0.0 mm
07:24 50.9 °F /  10.5 °C 39 °F /  3.9 °C 30.5 in /  1031.4 hPa NNW 11.5 mph /  18.5 km/h 11.5 mph /  18.5 km/h 64 % 0 in /  0.0 mm
07:27 50.9 °F /  10.5 °C 39 °F /  3.9 °C 30.5 in /  1031.4 hPa NNW 6.9 mph /  11.1 km/h 6.9 mph /  11.1 km/h 64 % 0 in /  0.0 mm
07:30 51.1 °F /  10.6 °C 38.8 °F /  3.8 °C 30.5 in /  1031.4 hPa NNW 6.9 mph /  11.1 km/h 6.9 mph /  11.1 km/h 63 % 0 in /  0.0 mm
07:35 51.4 °F /  10.8 °C 39.4 °F /  4.1 °C 30.5 in /  1031.7 hPa North 7 mph /  11.3 km/h 7 mph /  11.3 km/h 63 % 0 in /  0.0 mm
07:40 51.1 °F /  10.6 °C 38.8 °F /  3.8 °C 30.5 in /  1031.7 hPa NNW 8.1 mph /  13.0 km/h 8.1 mph /  13.0 km/h 63 % 0 in /  0.0 mm
07:41 51.1 °F /  10.6 °C 38.8 °F /  3.8 °C 30.5 in /  1031.7 hPa NNW 8.1 mph /  13.0 km/h 8.1 mph /  13.0 km/h 63 % 0 in /  0.0 mm
07:42 51.1 °F /  10.6 °C 38.8 °F /  3.8 °C 30.5 in /  1031.7 hPa NNW 8.1 mph /  13.0 km/h 8.1 mph /  13.0 km/h 63 % 0 in /  0.0 mm
07:46 50.7 °F /  10.4 °C 39 °F /  3.9 °C 30.5 in /  1031.7 hPa NNW 9.2 mph /  14.8 km/h 9.2 mph /  14.8 km/h 64 % 0 in /  0.0 mm
07:51 50.4 °F /  10.2 °C 38.7 °F /  3.7 °C 30.5 in /  1031.7 hPa NNW 9.2 mph /  14.8 km/h 9.2 mph /  14.8 km/h 64 % 0 in /  0.0 mm
07:56 50.5 °F /  10.3 °C 38.8 °F /  3.8 °C 30.5 in /  1031.7 hPa NNW 6.9 mph /  11.1 km/h 6.9 mph /  11.1 km/h 64 % 0 in /  0.0 mm
07:59 50.7 °F /  10.4 °C 39 °F /  3.9 °C 30.5 in /  1031.7 hPa NNW 6.9 mph /  11.1 km/h 6.9 mph /  11.1 km/h 64 % 0 in /  0.0 mm
08:01 51.1 °F /  10.6 °C 38.8 °F /  3.8 °C 30.5 in /  1031.7 hPa NNW 6.9 mph /  11.1 km/h 6.9 mph /  11.1 km/h 63 % 0 in /  0.0 mm
08:06 51.3 °F /  10.7 °C 38.7 °F /  3.7 °C 30.5 in /  1031.7 hPa North 8 mph /  12.9 km/h 8 mph /  12.9 km/h 62 % 0 in /  0.0 mm
08:07 51.3 °F /  10.7 °C 39 °F /  3.9 °C 30.5 in /  1031.7 hPa North 9 mph /  14.5 km/h 9 mph /  14.5 km/h 63 % 0 in /  0.0 mm
08:10 51.1 °F /  10.6 °C 38.8 °F /  3.8 °C 30.5 in /  1031.7 hPa NNW 8.1 mph /  13.0 km/h 8.1 mph /  13.0 km/h 63 % 0 in /  0.0 mm
08:13 51.1 °F /  10.6 °C 38.5 °F /  3.6 °C 30.5 in /  1032.1 hPa North 7 mph /  11.3 km/h 7 mph /  11.3 km/h 62 % 0 in /  0.0 mm
08:15 51.1 °F /  10.6 °C 38.5 °F /  3.6 °C 30.5 in /  1032.1 hPa NNW 6.9 mph /  11.1 km/h 6.9 mph /  11.1 km/h 62 % 0 in /  0.0 mm
08:20 51.3 °F /  10.7 °C 38.7 °F /  3.7 °C 30.5 in /  1032.1 hPa NNW 5.8 mph /  9.3 km/h 5.8 mph /  9.3 km/h 62 % 0 in /  0.0 mm
08:22 51.3 °F /  10.7 °C 38.7 °F /  3.7 °C 30.5 in /  1032.1 hPa NNW 6.9 mph /  11.1 km/h 6.9 mph /  11.1 km/h 62 % 0 in /  0.0 mm
08:26 51.3 °F /  10.7 °C 38.7 °F /  3.7 °C 30.5 in /  1032.1 hPa North 6.9 mph /  11.1 km/h 6.9 mph /  11.1 km/h 62 % 0 in /  0.0 mm
08:31 50.7 °F /  10.4 °C 38.1 °F /  3.4 °C 30.5 in /  1032.1 hPa NNW 4.6 mph /  7.4 km/h 4.6 mph /  7.4 km/h 62 % 0 in /  0.0 mm
08:33 50.9 °F /  10.5 °C 38.3 °F /  3.5 °C 30.5 in /  1032.1 hPa North 7 mph /  11.3 km/h 7 mph /  11.3 km/h 62 % 0 in /  0.0 mm
08:38 51.3 °F /  10.7 °C 38.1 °F /  3.4 °C 30.5 in /  1032.1 hPa North 5.8 mph /  9.3 km/h 5.8 mph /  9.3 km/h 61 % 0 in /  0.0 mm
08:40 51.3 °F /  10.7 °C 38.1 °F /  3.4 °C 30.5 in /  1032.1 hPa North 11.5 mph /  18.5 km/h 11.5 mph /  18.5 km/h 61 % 0 in /  0.0 mm
08:44 51.1 °F /  10.6 °C 37.9 °F /  3.3 °C 30.5 in /  1032.1 hPa NNW 6.9 mph /  11.1 km/h 6.9 mph /  11.1 km/h 61 % 0 in /  0.0 mm
08:48 51.3 °F /  10.7 °C 37.8 °F /  3.2 °C 30.5 in /  1032.1 hPa NNW 6.9 mph /  11.1 km/h 6.9 mph /  11.1 km/h 60 % 0 in /  0.0 mm
08:49 51.3 °F /  10.7 °C 37.9 °F /  3.3 °C 30.5 in /  1032.1 hPa North 9 mph /  14.5 km/h 9 mph /  14.5 km/h 60 % 0 in /  0.0 mm
08:56 51.3 °F /  10.7 °C 37.9 °F /  3.3 °C 30.5 in /  1032.1 hPa NNW 6.9 mph /  11.1 km/h 6.9 mph /  11.1 km/h 60 % 0 in /  0.0 mm
09:01 51.3 °F /  10.7 °C 37.9 °F /  3.3 °C 30.5 in /  1032.1 hPa North 7 mph /  11.3 km/h 7 mph /  11.3 km/h 60 % 0 in /  0.0 mm
09:02 51.3 °F /  10.7 °C 38.3 °F /  3.5 °C 30.5 in /  1032.1 hPa NNW 8.1 mph /  13.0 km/h 8.1 mph /  13.0 km/h 61 % 0 in /  0.0 mm
09:07 51.6 °F /  10.9 °C 37.8 °F /  3.2 °C 30.5 in /  1032.1 hPa NNW 6.9 mph /  11.1 km/h 6.9 mph /  11.1 km/h 59 % 0 in /  0.0 mm
09:08 52 °F /  11.1 °C 37.9 °F /  3.3 °C 30.5 in /  1032.1 hPa NNW 6.9 mph /  11.1 km/h 6.9 mph /  11.1 km/h 59 % 0 in /  0.0 mm
09:10 52.2 °F /  11.2 °C 37.8 °F /  3.2 °C 30.5 in /  1032.1 hPa NNW 4.6 mph /  7.4 km/h 4.6 mph /  7.4 km/h 58 % 0 in /  0.0 mm
09:14 52.3 °F /  11.3 °C 37.9 °F /  3.3 °C 30.5 in /  1032.1 hPa North 6.9 mph /  11.1 km/h 6.9 mph /  11.1 km/h 58 % 0 in /  0.0 mm
09:19 52.5 °F /  11.4 °C 38.1 °F /  3.4 °C 30.5 in /  1032.1 hPa North 3.5 mph /  5.6 km/h 3.5 mph /  5.6 km/h 58 % 0 in /  0.0 mm
09:22 52.5 °F /  11.4 °C 38.1 °F /  3.4 °C 30.5 in /  1032.4 hPa North 4.6 mph /  7.4 km/h 4.6 mph /  7.4 km/h 58 % 0 in /  0.0 mm
09:25 52.7 °F /  11.5 °C 38.3 °F /  3.5 °C 30.5 in /  1032.4 hPa North 3.5 mph /  5.6 km/h 3.5 mph /  5.6 km/h 58 % 0 in /  0.0 mm
09:30 53.1 °F /  11.7 °C 37.8 °F /  3.2 °C 30.5 in /  1032.1 hPa WNW 5.8 mph /  9.3 km/h 5.8 mph /  9.3 km/h 56 % 0 in /  0.0 mm
09:35 53.4 °F /  11.9 °C 38.7 °F /  3.7 °C 30.5 in /  1032.4 hPa NE 3.5 mph /  5.6 km/h 3.5 mph /  5.6 km/h 57 % 0 in /  0.0 mm
09:37 53.4 °F /  11.9 °C 38.7 °F /  3.7 °C 30.5 in /  1032.1 hPa WNW 3.5 mph /  5.6 km/h 3.5 mph /  5.6 km/h 57 % 0 in /  0.0 mm
09:42 54 °F /  12.2 °C 38.7 °F /  3.7 °C 30.5 in /  1032.4 hPa NNW 3.5 mph /  5.6 km/h 3.5 mph /  5.6 km/h 56 % 0 in /  0.0 mm
09:43 54 °F /  12.2 °C 38.7 °F /  3.7 °C 30.5 in /  1032.4 hPa NNW 3.5 mph /  5.6 km/h 3.5 mph /  5.6 km/h 56 % 0 in /  0.0 mm
09:48 54.5 °F /  12.5 °C 38.7 °F /  3.7 °C 30.5 in /  1032.4 hPa NNW 2.3 mph /  3.7 km/h 2.3 mph /  3.7 km/h 55 % 0 in /  0.0 mm
09:53 54.9 °F /  12.7 °C 39 °F /  3.9 °C 30.5 in /  1032.4 hPa Calm     55 % 0 in /  0.0 mm
09:55 55 °F /  12.8 °C 39.6 °F /  4.2 °C 30.5 in /  1032.1 hPa Calm     56 % 0 in /  0.0 mm
10:01 55.6 °F /  13.1 °C 39.9 °F /  4.4 °C 30.5 in /  1032.4 hPa NE 2.3 mph /  3.7 km/h 2.3 mph /  3.7 km/h 56 % 0 in /  0.0 mm
10:06 55.8 °F /  13.2 °C 39.4 °F /  4.1 °C 30.5 in /  1032.4 hPa North 2.3 mph /  3.7 km/h 2.3 mph /  3.7 km/h 54 % 0 in /  0.0 mm
10:07 55.8 °F /  13.2 °C 39.4 °F /  4.1 °C 30.5 in /  1032.4 hPa North 4.6 mph /  7.4 km/h 4.6 mph /  7.4 km/h 54 % 0 in /  0.0 mm
10:08 55.9 °F /  13.3 °C 39.6 °F /  4.2 °C 30.5 in /  1032.4 hPa NNW 3.5 mph /  5.6 km/h 3.5 mph /  5.6 km/h 54 % 0 in /  0.0 mm
10:12 56.1 °F /  13.4 °C 39.4 °F /  4.1 °C 30.5 in /  1032.4 hPa NNE 5 mph /  8.0 km/h 5 mph /  8.0 km/h 53 % 0 in /  0.0 mm
10:17 56.7 °F /  13.7 °C 39.7 °F /  4.3 °C 30.5 in /  1032.4 hPa NNE 2.3 mph /  3.7 km/h 2.3 mph /  3.7 km/h 53 % 0 in /  0.0 mm
10:18 56.8 °F /  13.8 °C 39.7 °F /  4.3 °C 30.5 in /  1032.4 hPa NNE 7 mph /  11.3 km/h 7 mph /  11.3 km/h 53 % 0 in /  0.0 mm
10:19 56.8 °F /  13.8 °C 39.4 °F /  4.1 °C 30.5 in /  1032.4 hPa North 8.1 mph /  13.0 km/h 8.1 mph /  13.0 km/h 52 % 0 in /  0.0 mm
10:24 57 °F /  13.9 °C 38.5 °F /  3.6 °C 30.5 in /  1032.4 hPa North 6 mph /  9.7 km/h 6 mph /  9.7 km/h 50 % 0 in /  0.0 mm
10:25 57 °F /  13.9 °C 38.5 °F /  3.6 °C 30.5 in /  1032.4 hPa NNW 5.8 mph /  9.3 km/h 5.8 mph /  9.3 km/h 50 % 0 in /  0.0 mm
10:27 57.2 °F /  14.0 °C 38.7 °F /  3.7 °C 30.5 in /  1032.4 hPa NNW 4.6 mph /  7.4 km/h 4.6 mph /  7.4 km/h 50 % 0 in /  0.0 mm
10:31 57.7 °F /  14.3 °C 39.2 °F /  4.0 °C 30.5 in /  1032.4 hPa North 4.6 mph /  7.4 km/h 4.6 mph /  7.4 km/h 50 % 0 in /  0.0 mm
10:36 57.9 °F /  14.4 °C 36.9 °F /  2.7 °C 30.5 in /  1032.4 hPa North 6.9 mph /  11.1 km/h 6.9 mph /  11.1 km/h 45 % 0 in /  0.0 mm
10:41 58.6 °F /  14.8 °C 40.5 °F /  4.7 °C 30.5 in /  1032.4 hPa West 3.5 mph /  5.6 km/h 3.5 mph /  5.6 km/h 51 % 0 in /  0.0 mm
10:42 58.6 °F /  14.8 °C 40.5 °F /  4.7 °C 30.5 in /  1032.4 hPa West 3.5 mph /  5.6 km/h 3.5 mph /  5.6 km/h 51 % 0 in /  0.0 mm
10:44 58.8 °F /  14.9 °C 42.3 °F /  5.7 °C 30.5 in /  1032.4 hPa West 3.5 mph /  5.6 km/h 3.5 mph /  5.6 km/h 54 % 0 in /  0.0 mm
10:49 59 °F /  15.0 °C 43.3 °F /  6.3 °C 30.5 in /  1032.4 hPa West 2.3 mph /  3.7 km/h 2.3 mph /  3.7 km/h 56 % 0 in /  0.0 mm
10:54 59.4 °F /  15.2 °C 44.4 °F /  6.9 °C 30.5 in /  1032.4 hPa WSW 2.3 mph /  3.7 km/h 2.3 mph /  3.7 km/h 58 % 0 in /  0.0 mm
10:55 59.4 °F /  15.2 °C 44.4 °F /  6.9 °C 30.5 in /  1032.4 hPa WSW 2.3 mph /  3.7 km/h 2.3 mph /  3.7 km/h 58 % 0 in /  0.0 mm
11:00 59.4 °F /  15.2 °C 45.9 °F /  7.7 °C 30.5 in /  1032.4 hPa SW 4.6 mph /  7.4 km/h 4.6 mph /  7.4 km/h 61 % 0 in /  0.0 mm
11:04 59.4 °F /  15.2 °C 46.2 °F /  7.9 °C 30.5 in /  1032.7 hPa SW 3.5 mph /  5.6 km/h 3.5 mph /  5.6 km/h 62 % 0 in /  0.0 mm
11:09 59 °F /  15.0 °C 46.4 °F /  8.0 °C 30.5 in /  1032.7 hPa SW 4 mph /  6.4 km/h 4 mph /  6.4 km/h 63 % 0 in /  0.0 mm
11:14 58.6 °F /  14.8 °C 46 °F /  7.8 °C 30.5 in /  1032.4 hPa SW 4.6 mph /  7.4 km/h 4.6 mph /  7.4 km/h 63 % 0 in /  0.0 mm
11:15 58.6 °F /  14.8 °C 46 °F /  7.8 °C 30.5 in /  1032.4 hPa SW 4.6 mph /  7.4 km/h 4.6 mph /  7.4 km/h 63 % 0 in /  0.0 mm
11:20 58.5 °F /  14.7 °C 45.9 °F /  7.7 °C 30.5 in /  1032.4 hPa SW 5.8 mph /  9.3 km/h 5.8 mph /  9.3 km/h 63 % 0 in /  0.0 mm
11:25 58.3 °F /  14.6 °C 45.1 °F /  7.3 °C 30.5 in /  1032.7 hPa WSW 4.6 mph /  7.4 km/h 4.6 mph /  7.4 km/h 62 % 0 in /  0.0 mm
11:26 58.3 °F /  14.6 °C 44.8 °F /  7.1 °C 30.5 in /  1032.7 hPa WSW 5 mph /  8.0 km/h 5 mph /  8.0 km/h 61 % 0 in /  0.0 mm
11:28 58.3 °F /  14.6 °C 44.4 °F /  6.9 °C 30.5 in /  1032.7 hPa WSW 5 mph /  8.0 km/h 5 mph /  8.0 km/h 60 % 0 in /  0.0 mm
11:32 58.5 °F /  14.7 °C 45 °F /  7.2 °C 30.5 in /  1032.4 hPa WSW 4 mph /  6.4 km/h 4 mph /  6.4 km/h 61 % 0 in /  0.0 mm
11:37 58.6 °F /  14.8 °C 46.9 °F /  8.3 °C 30.5 in /  1032.7 hPa SW 5.8 mph /  9.3 km/h 5.8 mph /  9.3 km/h 65 % 0 in /  0.0 mm
11:38 58.6 °F /  14.8 °C 46.9 °F /  8.3 °C 30.5 in /  1032.7 hPa SW 5 mph /  8.0 km/h 5 mph /  8.0 km/h 65 % 0 in /  0.0 mm
11:43 58.6 °F /  14.8 °C 47.5 °F /  8.6 °C 30.5 in /  1032.7 hPa SW 5.8 mph /  9.3 km/h 5.8 mph /  9.3 km/h 66 % 0 in /  0.0 mm
11:46 58.8 °F /  14.9 °C 47.8 °F /  8.8 °C 30.5 in /  1032.7 hPa SW 4.6 mph /  7.4 km/h 4.6 mph /  7.4 km/h 67 % 0 in /  0.0 mm
11:49 58.8 °F /  14.9 °C 48 °F /  8.9 °C 30.5 in /  1032.4 hPa SW 5.8 mph /  9.3 km/h 5.8 mph /  9.3 km/h 67 % 0 in /  0.0 mm
11:54 59.2 °F /  15.1 °C 48.6 °F /  9.2 °C 30.5 in /  1032.4 hPa SW 5.8 mph /  9.3 km/h 5.8 mph /  9.3 km/h 68 % 0 in /  0.0 mm
11:58 59.2 °F /  15.1 °C 48.6 °F /  9.2 °C 30.5 in /  1032.4 hPa WSW 5.8 mph /  9.3 km/h 5.8 mph /  9.3 km/h 68 % 0 in /  0.0 mm
11:59 59 °F /  15.0 °C 48.4 °F /  9.1 °C 30.5 in /  1032.4 hPa WSW 3.5 mph /  5.6 km/h 3.5 mph /  5.6 km/h 68 % 0 in /  0.0 mm
12:04 59.2 °F /  15.1 °C 47.8 °F /  8.8 °C 30.5 in /  1032.4 hPa SW 3.5 mph /  5.6 km/h 3.5 mph /  5.6 km/h 66 % 0 in /  0.0 mm
12:08 59.2 °F /  15.1 °C 47.8 °F /  8.8 °C 30.5 in /  1032.4 hPa SW 4 mph /  6.4 km/h 4 mph /  6.4 km/h 66 % 0 in /  0.0 mm
12:13 59.2 °F /  15.1 °C 47.8 °F /  8.8 °C 30.5 in /  1032.4 hPa SW 3.5 mph /  5.6 km/h 3.5 mph /  5.6 km/h 66 % 0 in /  0.0 mm
12:16 59.4 °F /  15.2 °C 47.8 °F /  8.8 °C 30.5 in /  1032.4 hPa SW 2 mph /  3.2 km/h 2 mph /  3.2 km/h 66 % 0 in /  0.0 mm
12:21 59.7 °F /  15.4 °C 48.4 °F /  9.1 °C 30.5 in /  1032.1 hPa SW 3.5 mph /  5.6 km/h 3.5 mph /  5.6 km/h 66 % 0 in /  0.0 mm
12:26 60.1 °F /  15.6 °C 48.6 °F /  9.2 °C 30.5 in /  1032.1 hPa SW 3.5 mph /  5.6 km/h 3.5 mph /  5.6 km/h 66 % 0 in /  0.0 mm
12:29 60.3 °F /  15.7 °C 49.6 °F /  9.8 °C 30.5 in /  1032.1 hPa SW 3.5 mph /  5.6 km/h 3.5 mph /  5.6 km/h 68 % 0 in /  0.0 mm
12:33 60.3 °F /  15.7 °C 49.6 °F /  9.8 °C 30.5 in /  1032.1 hPa SW 3.5 mph /  5.6 km/h 3.5 mph /  5.6 km/h 68 % 0 in /  0.0 mm
12:38 60.3 °F /  15.7 °C 49.6 °F /  9.8 °C 30.5 in /  1032.1 hPa SW 2.3 mph /  3.7 km/h 2.3 mph /  3.7 km/h 68 % 0 in /  0.0 mm
12:39 60.3 °F /  15.7 °C 49.6 °F /  9.8 °C 30.5 in /  1031.7 hPa SW 3.5 mph /  5.6 km/h 3.5 mph /  5.6 km/h 68 % 0 in /  0.0 mm
12:40 60.4 °F /  15.8 °C 50.2 °F /  10.1 °C 30.5 in /  1031.7 hPa SW 3.5 mph /  5.6 km/h 3.5 mph /  5.6 km/h 69 % 0 in /  0.0 mm
12:45 60.4 °F /  15.8 °C 49.8 °F /  9.9 °C 30.5 in /  1031.7 hPa SW 2.3 mph /  3.7 km/h 2.3 mph /  3.7 km/h 68 % 0 in /  0.0 mm
12:46 60.6 °F /  15.9 °C 50 °F /  10.0 °C 30.5 in /  1031.7 hPa SW 1.2 mph /  1.9 km/h   68 % 0 in /  0.0 mm
12:53 61 °F /  16.1 °C 50.4 °F /  10.2 °C 30.5 in /  1031.7 hPa Calm     68 % 0 in /  0.0 mm
12:59 61.2 °F /  16.2 °C 50.5 °F /  10.3 °C 30.5 in /  1031.4 hPa SW 3.5 mph /  5.6 km/h 3.5 mph /  5.6 km/h 68 % 0 in /  0.0 mm
13:02 61.2 °F /  16.2 °C 50.5 °F /  10.3 °C 30.5 in /  1031.4 hPa SW 2.3 mph /  3.7 km/h 2.3 mph /  3.7 km/h 68 % 0 in /  0.0 mm
13:04 61.2 °F /  16.2 °C 50.5 °F /  10.3 °C 30.5 in /  1031.4 hPa SW 2.3 mph /  3.7 km/h 2.3 mph /  3.7 km/h 68 % 0 in /  0.0 mm
13:09 61.2 °F /  16.2 °C 50.5 °F /  10.3 °C 30.5 in /  1031.4 hPa SW 2.3 mph /  3.7 km/h 2.3 mph /  3.7 km/h 68 % 0 in /  0.0 mm
13:10 61.2 °F /  16.2 °C 50.5 °F /  10.3 °C 30.5 in /  1031.4 hPa SW 2.3 mph /  3.7 km/h 2.3 mph /  3.7 km/h 68 % 0 in /  0.0 mm
13:15 61.3 °F /  16.3 °C 51.1 °F /  10.6 °C 30.4 in /  1031.0 hPa Calm     69 % 0 in /  0.0 mm
13:20 61.2 °F /  16.2 °C 50.9 °F /  10.5 °C 30.4 in /  1031.0 hPa Calm     69 % 0 in /  0.0 mm
13:23 61.2 °F /  16.2 °C 50.5 °F /  10.3 °C 30.4 in /  1031.0 hPa Calm     68 % 0 in /  0.0 mm
13:26 61.2 °F /  16.2 °C 50.7 °F /  10.4 °C 30.4 in /  1031.0 hPa Calm     69 % 0 in /  0.0 mm
13:30 61.2 °F /  16.2 °C 50.5 °F /  10.3 °C 30.4 in /  1031.0 hPa Calm     68 % 0 in /  0.0 mm
13:35 61.2 °F /  16.2 °C 50.5 °F /  10.3 °C 30.4 in /  1030.7 hPa Calm     68 % 0 in /  0.0 mm
13:39 61.2 °F /  16.2 °C 50.5 °F /  10.3 °C 30.4 in /  1030.7 hPa Calm     68 % 0 in /  0.0 mm
13:41 61.3 °F /  16.3 °C 50.5 °F /  10.3 °C 30.4 in /  1030.7 hPa Calm     68 % 0 in /  0.0 mm
13:44 61.5 °F /  16.4 °C 50.5 °F /  10.3 °C 30.4 in /  1030.7 hPa Calm     67 % 0 in /  0.0 mm
13:46 61.5 °F /  16.4 °C 49.3 °F /  9.6 °C 30.4 in /  1030.7 hPa Calm     64 % 0 in /  0.0 mm
13:51 61.5 °F /  16.4 °C 49.6 °F /  9.8 °C 30.4 in /  1030.7 hPa Calm     65 % 0 in /  0.0 mm
13:53 61.5 °F /  16.4 °C 49.6 °F /  9.8 °C 30.4 in /  1030.7 hPa Calm     65 % 0 in /  0.0 mm
13:58 61.2 °F /  16.2 °C 50.5 °F /  10.3 °C 30.4 in /  1030.4 hPa SW 2.3 mph /  3.7 km/h 2.3 mph /  3.7 km/h 68 % 0 in /  0.0 mm
14:03 61.5 °F /  16.4 °C 51.6 °F /  10.9 °C 30.4 in /  1030.4 hPa SW 1.2 mph /  1.9 km/h 1.2 mph /  1.9 km/h 70 % 0 in /  0.0 mm
14:08 62.1 °F /  16.7 °C 51.6 °F /  10.9 °C 30.4 in /  1030.4 hPa Calm     69 % 0 in /  0.0 mm
14:13 62.2 °F /  16.8 °C 52 °F /  11.1 °C 30.4 in /  1030.0 hPa Calm     69 % 0 in /  0.0 mm
14:14 62.2 °F /  16.8 °C 52 °F /  11.1 °C 30.4 in /  1030.0 hPa Calm     69 % 0 in /  0.0 mm
14:25 62.4 °F /  16.9 °C 51.1 °F /  10.6 °C 30.4 in /  1030.0 hPa SW 1.2 mph /  1.9 km/h   66 % 0 in /  0.0 mm
14:26 62.6 °F /  17.0 °C 51.1 °F /  10.6 °C 30.4 in /  1030.0 hPa SW 1.2 mph /  1.9 km/h 1.2 mph /  1.9 km/h 66 % 0 in /  0.0 mm
14:31 62.6 °F /  17.0 °C 49.5 °F /  9.7 °C 30.4 in /  1030.0 hPa SW 3.5 mph /  5.6 km/h 3.5 mph /  5.6 km/h 62 % 0 in /  0.0 mm
14:32 62.8 °F /  17.1 °C 49.8 °F /  9.9 °C 30.4 in /  1030.0 hPa SW 3.5 mph /  5.6 km/h 3.5 mph /  5.6 km/h 63 % 0 in /  0.0 mm
14:35 62.8 °F /  17.1 °C 50.4 °F /  10.2 °C 30.4 in /  1030.0 hPa SW 2.3 mph /  3.7 km/h 2.3 mph /  3.7 km/h 64 % 0 in /  0.0 mm
14:39 62.8 °F /  17.1 °C 50.4 °F /  10.2 °C 30.4 in /  1030.0 hPa SW 1.2 mph /  1.9 km/h   64 % 0 in /  0.0 mm
14:44 63 °F /  17.2 °C 52 °F /  11.1 °C 30.4 in /  1030.0 hPa SW 2.3 mph /  3.7 km/h 2.3 mph /  3.7 km/h 67 % 0 in /  0.0 mm
14:46 63 °F /  17.2 °C 52.3 °F /  11.3 °C 30.4 in /  1029.7 hPa SW 2.3 mph /  3.7 km/h 2.3 mph /  3.7 km/h 68 % 0 in /  0.0 mm
14:53 62.1 °F /  16.7 °C 51.3 °F /  10.7 °C 30.4 in /  1029.7 hPa SW 2.3 mph /  3.7 km/h 2.3 mph /  3.7 km/h 68 % 0 in /  0.0 mm
14:57 61.3 °F /  16.3 °C 50.7 °F /  10.4 °C 30.4 in /  1029.7 hPa Calm     68 % 0 in /  0.0 mm
15:02 61.3 °F /  16.3 °C 51.8 °F /  11.0 °C 30.4 in /  1029.7 hPa SW 1.2 mph /  1.9 km/h 1.2 mph /  1.9 km/h 71 % 0 in /  0.0 mm
15:07 61.3 °F /  16.3 °C 51.1 °F /  10.6 °C 30.4 in /  1029.7 hPa SW 1.2 mph /  1.9 km/h 1.2 mph /  1.9 km/h 69 % 0 in /  0.0 mm
15:10 61.3 °F /  16.3 °C 52 °F /  11.1 °C 30.4 in /  1029.7 hPa SW 2.3 mph /  3.7 km/h 2.3 mph /  3.7 km/h 71 % 0 in /  0.0 mm
15:13 61.3 °F /  16.3 °C 51.8 °F /  11.0 °C 30.4 in /  1029.7 hPa SW 2.3 mph /  3.7 km/h 2.3 mph /  3.7 km/h 71 % 0 in /  0.0 mm
15:18 61.3 °F /  16.3 °C 52.3 °F /  11.3 °C 30.4 in /  1029.7 hPa SW 2.3 mph /  3.7 km/h 2.3 mph /  3.7 km/h 72 % 0 in /  0.0 mm
15:20 61.2 °F /  16.2 °C 51.3 °F /  10.7 °C 30.4 in /  1029.7 hPa SW 2.3 mph /  3.7 km/h 2.3 mph /  3.7 km/h 70 % 0 in /  0.0 mm
15:23 61.2 °F /  16.2 °C 52 °F /  11.1 °C 30.4 in /  1029.7 hPa SW 2.3 mph /  3.7 km/h 2.3 mph /  3.7 km/h 72 % 0 in /  0.0 mm
15:28 61 °F /  16.1 °C 51.4 °F /  10.8 °C 30.4 in /  1029.7 hPa SW 2.3 mph /  3.7 km/h 2.3 mph /  3.7 km/h 71 % 0 in /  0.0 mm
15:33 60.8 °F /  16.0 °C 51.6 °F /  10.9 °C 30.4 in /  1029.7 hPa Calm     72 % 0 in /  0.0 mm
15:34 60.8 °F /  16.0 °C 51.6 °F /  10.9 °C 30.4 in /  1029.7 hPa Calm     72 % 0 in /  0.0 mm
15:35 61 °F /  16.1 °C 51.8 °F /  11.0 °C 30.4 in /  1029.7 hPa Calm     72 % 0 in /  0.0 mm
15:40 60.6 °F /  15.9 °C 48.4 °F /  9.1 °C 30.4 in /  1029.7 hPa Calm   0.1 mph /  0.2 km/h 64 % 0 in /  0.0 mm
15:43 60.6 °F /  15.9 °C 46.6 °F /  8.1 °C 30.4 in /  1029.7 hPa Calm     60 % 0 in /  0.0 mm
15:48 61.2 °F /  16.2 °C 47.1 °F /  8.4 °C 30.4 in /  1029.7 hPa Calm     60 % 0 in /  0.0 mm
15:51 61.3 °F /  16.3 °C 46.6 °F /  8.1 °C 30.4 in /  1029.7 hPa SW 1.2 mph /  1.9 km/h 1.2 mph /  1.9 km/h 58 % 0 in /  0.0 mm
15:54 61.5 °F /  16.4 °C 46.2 °F /  7.9 °C 30.4 in /  1029.7 hPa Calm     57 % 0 in /  0.0 mm
16:00 62.2 °F /  16.8 °C 44.2 °F /  6.8 °C 30.4 in /  1029.7 hPa Calm     52 % 0 in /  0.0 mm
16:05 62.6 °F /  17.0 °C 45.7 °F /  7.6 °C 30.4 in /  1029.7 hPa Calm     54 % 0 in /  0.0 mm
16:10 62.8 °F /  17.1 °C 49.5 °F /  9.7 °C 30.4 in /  1029.7 hPa SW 2.3 mph /  3.7 km/h   62 % 0 in /  0.0 mm
16:11 63 °F /  17.2 °C 50.2 °F /  10.1 °C 30.4 in /  1029.7 hPa Calm     63 % 0 in /  0.0 mm
16:16 62.8 °F /  17.1 °C 49.5 °F /  9.7 °C 30.4 in /  1029.7 hPa SW 2.3 mph /  3.7 km/h 2.3 mph /  3.7 km/h 62 % 0 in /  0.0 mm
16:18 62.4 °F /  16.9 °C 48.9 °F /  9.4 °C 30.4 in /  1029.7 hPa SW 1.2 mph /  1.9 km/h 1.2 mph /  1.9 km/h 61 % 0 in /  0.0 mm
16:20 62.4 °F /  16.9 °C 48.9 °F /  9.4 °C 30.4 in /  1029.7 hPa SW 1.2 mph /  1.9 km/h 1.2 mph /  1.9 km/h 61 % 0 in /  0.0 mm
16:23 62.4 °F /  16.9 °C 49.3 °F /  9.6 °C 30.4 in /  1029.7 hPa SW 2 mph /  3.2 km/h 2 mph /  3.2 km/h 62 % 0 in /  0.0 mm
16:28 62.2 °F /  16.8 °C 49.1 °F /  9.5 °C 30.4 in /  1029.7 hPa SW 1.2 mph /  1.9 km/h   62 % 0 in /  0.0 mm
16:33 62.6 °F /  17.0 °C 47.1 °F /  8.4 °C 30.4 in /  1029.7 hPa SW 1.2 mph /  1.9 km/h 1.2 mph /  1.9 km/h 57 % 0 in /  0.0 mm
16:36 63 °F /  17.2 °C 46.6 °F /  8.1 °C 30.4 in /  1029.7 hPa Calm     55 % 0 in /  0.0 mm
16:41 62.4 °F /  16.9 °C 44.6 °F /  7.0 °C 30.4 in /  1029.7 hPa SSW 2.3 mph /  3.7 km/h 2.3 mph /  3.7 km/h 52 % 0 in /  0.0 mm
16:44 62.6 °F /  17.0 °C 46.2 °F /  7.9 °C 30.4 in /  1029.7 hPa SSW 1 mph /  1.6 km/h 1 mph /  1.6 km/h 55 % 0 in /  0.0 mm
16:49 62.2 °F /  16.8 °C 43.9 °F /  6.6 °C 30.4 in /  1029.7 hPa SSW 3.5 mph /  5.6 km/h 3.5 mph /  5.6 km/h 51 % 0 in /  0.0 mm
16:50 62.2 °F /  16.8 °C 44.2 °F /  6.8 °C 30.4 in /  1029.7 hPa SSW 2.3 mph /  3.7 km/h 2.3 mph /  3.7 km/h 52 % 0 in /  0.0 mm
16:51 62.1 °F /  16.7 °C 44.2 °F /  6.8 °C 30.4 in /  1029.7 hPa SSW 1.2 mph /  1.9 km/h   52 % 0 in /  0.0 mm
16:56 62.2 °F /  16.8 °C 46.2 °F /  7.9 °C 30.4 in /  1029.7 hPa SSW 1.2 mph /  1.9 km/h 1.2 mph /  1.9 km/h 56 % 0 in /  0.0 mm
16:58 62.1 °F /  16.7 °C 45.1 °F /  7.3 °C 30.4 in /  1029.7 hPa SSW 1.2 mph /  1.9 km/h   54 % 0 in /  0.0 mm
17:00 62.1 °F /  16.7 °C 44.8 °F /  7.1 °C 30.4 in /  1029.7 hPa Calm   1 mph /  1.6 km/h 53 % 0 in /  0.0 mm
17:05 62.6 °F /  17.0 °C 48.9 °F /  9.4 °C 30.4 in /  1030.0 hPa Calm     61 % 0 in /  0.0 mm
17:06 62.6 °F /  17.0 °C 48.9 °F /  9.4 °C 30.4 in /  1030.0 hPa SSW 3.5 mph /  5.6 km/h 3.5 mph /  5.6 km/h 61 % 0 in /  0.0 mm
17:07 62.6 °F /  17.0 °C 48.9 °F /  9.4 °C 30.4 in /  1030.0 hPa SSW 3.5 mph /  5.6 km/h 3.5 mph /  5.6 km/h 61 % 0 in /  0.0 mm
17:11 62.1 °F /  16.7 °C 45.7 °F /  7.6 °C 30.4 in /  1030.0 hPa Calm     55 % 0 in /  0.0 mm
17:13 62.1 °F /  16.7 °C 45.7 °F /  7.6 °C 30.4 in /  1029.7 hPa Calm     55 % 0 in /  0.0 mm
17:17 62.4 °F /  16.9 °C 46.6 °F /  8.1 °C 30.4 in /  1029.7 hPa Calm     56 % 0 in /  0.0 mm
17:22 62.6 °F /  17.0 °C 45.1 °F /  7.3 °C 30.4 in /  1030.0 hPa Calm     53 % 0 in /  0.0 mm
17:23 62.6 °F /  17.0 °C 44.8 °F /  7.1 °C 30.4 in /  1029.7 hPa Calm     52 % 0 in /  0.0 mm
17:28 62.8 °F /  17.1 °C 42.8 °F /  6.0 °C 30.4 in /  1029.7 hPa East 1 mph /  1.6 km/h 1 mph /  1.6 km/h 48 % 0 in /  0.0 mm
17:29 62.8 °F /  17.1 °C 42.8 °F /  6.0 °C 30.4 in /  1029.7 hPa East 2.3 mph /  3.7 km/h 2.3 mph /  3.7 km/h 48 % 0 in /  0.0 mm
17:34 63.1 °F /  17.3 °C 44.8 °F /  7.1 °C 30.4 in /  1029.7 hPa Calm     51 % 0 in /  0.0 mm
17:36 63.1 °F /  17.3 °C 46.2 °F /  7.9 °C 30.4 in /  1029.7 hPa Calm     54 % 0 in /  0.0 mm
17:41 63.5 °F /  17.5 °C 46 °F /  7.8 °C 30.4 in /  1029.7 hPa East 2.3 mph /  3.7 km/h 2.3 mph /  3.7 km/h 53 % 0 in /  0.0 mm
17:43 63.5 °F /  17.5 °C 44.4 °F /  6.9 °C 30.4 in /  1029.7 hPa East 2.3 mph /  3.7 km/h 2.3 mph /  3.7 km/h 50 % 0 in /  0.0 mm
17:47 63.7 °F /  17.6 °C 45.1 °F /  7.3 °C 30.4 in /  1029.7 hPa SE 2.3 mph /  3.7 km/h 2.3 mph /  3.7 km/h 51 % 0 in /  0.0 mm
17:52 63.7 °F /  17.6 °C 46 °F /  7.8 °C 30.4 in /  1029.7 hPa South 3.5 mph /  5.6 km/h 3.5 mph /  5.6 km/h 53 % 0 in /  0.0 mm
17:53 63.7 °F /  17.6 °C 46 °F /  7.8 °C 30.4 in /  1029.7 hPa South 3.5 mph /  5.6 km/h 3.5 mph /  5.6 km/h 53 % 0 in /  0.0 mm
17:55 63.7 °F /  17.6 °C 46.6 °F /  8.1 °C 30.4 in /  1029.7 hPa SSW 3.5 mph /  5.6 km/h 3.5 mph /  5.6 km/h 54 % 0 in /  0.0 mm
17:58 63.5 °F /  17.5 °C 47.5 °F /  8.6 °C 30.4 in /  1029.7 hPa SSW 3.5 mph /  5.6 km/h 3.5 mph /  5.6 km/h 56 % 0 in /  0.0 mm
18:03 63.1 °F /  17.3 °C 48 °F /  8.9 °C 30.4 in /  1029.7 hPa WSW 4 mph /  6.4 km/h 4 mph /  6.4 km/h 58 % 0 in /  0.0 mm
18:05 63 °F /  17.2 °C 46.9 °F /  8.3 °C 30.4 in /  1029.7 hPa WSW 3.5 mph /  5.6 km/h 3.5 mph /  5.6 km/h 56 % 0 in /  0.0 mm
18:08 62.8 °F /  17.1 °C 46.2 °F /  7.9 °C 30.4 in /  1030.0 hPa Calm     55 % 0 in /  0.0 mm
18:10 62.4 °F /  16.9 °C 48.4 °F /  9.1 °C 30.4 in /  1030.0 hPa South 3.5 mph /  5.6 km/h 3.5 mph /  5.6 km/h 60 % 0 in /  0.0 mm
18:17 62.1 °F /  16.7 °C 47.7 °F /  8.7 °C 30.4 in /  1030.0 hPa WSW 3.5 mph /  5.6 km/h 3.5 mph /  5.6 km/h 59 % 0 in /  0.0 mm
18:22 61.9 °F /  16.6 °C 48.2 °F /  9.0 °C 30.4 in /  1030.0 hPa WSW 2.3 mph /  3.7 km/h 2.3 mph /  3.7 km/h 61 % 0 in /  0.0 mm
18:23 61.7 °F /  16.5 °C 48 °F /  8.9 °C 30.4 in /  1030.0 hPa WSW 2.3 mph /  3.7 km/h 2.3 mph /  3.7 km/h 61 % 0 in /  0.0 mm
18:28 61.3 °F /  16.3 °C 49.8 °F /  9.9 °C 30.4 in /  1030.0 hPa WSW 2.3 mph /  3.7 km/h 2.3 mph /  3.7 km/h 66 % 0 in /  0.0 mm
18:33 60.8 °F /  16.0 °C 48.6 °F /  9.2 °C 30.4 in /  1030.0 hPa Calm     64 % 0 in /  0.0 mm
18:34 60.8 °F /  16.0 °C 48.6 °F /  9.2 °C 30.4 in /  1030.0 hPa Calm     64 % 0 in /  0.0 mm
18:35 60.6 °F /  15.9 °C 49.3 °F /  9.6 °C 30.4 in /  1030.4 hPa SSE 2 mph /  3.2 km/h 2 mph /  3.2 km/h 66 % 0 in /  0.0 mm
18:40 60.6 °F /  15.9 °C 49.3 °F /  9.6 °C 30.4 in /  1030.0 hPa Calm     66 % 0 in /  0.0 mm
18:41 60.6 °F /  15.9 °C 49.3 °F /  9.6 °C 30.4 in /  1030.0 hPa Calm     66 % 0 in /  0.0 mm
18:46 60.4 °F /  15.8 °C 48.2 °F /  9.0 °C 30.4 in /  1030.0 hPa Calm     64 % 0 in /  0.0 mm
18:47 60.4 °F /  15.8 °C 48.2 °F /  9.0 °C 30.4 in /  1030.0 hPa Calm     64 % 0 in /  0.0 mm
18:51 60.4 °F /  15.8 °C 47.3 °F /  8.5 °C 30.4 in /  1030.0 hPa Calm     62 % 0 in /  0.0 mm
18:54 60.4 °F /  15.8 °C 47.3 °F /  8.5 °C 30.4 in /  1030.4 hPa Calm     62 % 0 in /  0.0 mm
18:59 60.3 °F /  15.7 °C 46.8 °F /  8.2 °C 30.4 in /  1030.0 hPa Calm     61 % 0 in /  0.0 mm
19:02 60.3 °F /  15.7 °C 46.2 °F /  7.9 °C 30.4 in /  1030.0 hPa Calm     60 % 0 in /  0.0 mm
19:07 60.3 °F /  15.7 °C 45.9 °F /  7.7 °C 30.4 in /  1030.0 hPa NW 3.5 mph /  5.6 km/h 3.5 mph /  5.6 km/h 59 % 0 in /  0.0 mm
19:10 60.4 °F /  15.8 °C 45.5 °F /  7.5 °C 30.4 in /  1030.4 hPa NW 5.8 mph /  9.3 km/h 5.8 mph /  9.3 km/h 58 % 0 in /  0.0 mm
19:15 60.4 °F /  15.8 °C 45.1 °F /  7.3 °C 30.4 in /  1030.0 hPa NW 8.1 mph /  13.0 km/h 8.1 mph /  13.0 km/h 57 % 0 in /  0.0 mm
19:16 60.4 °F /  15.8 °C 44.8 °F /  7.1 °C 30.4 in /  1030.0 hPa NW 9 mph /  14.5 km/h 9 mph /  14.5 km/h 56 % 0 in /  0.0 mm
19:21 60.8 °F /  16.0 °C 44.4 °F /  6.9 °C 30.4 in /  1030.0 hPa NW 5.8 mph /  9.3 km/h 5.8 mph /  9.3 km/h 55 % 0 in /  0.0 mm
19:26 61.3 °F /  16.3 °C 44.1 °F /  6.7 °C 30.4 in /  1030.0 hPa WNW 5.8 mph /  9.3 km/h 5.8 mph /  9.3 km/h 53 % 0 in /  0.0 mm
19:27 61.5 °F /  16.4 °C 43.7 °F /  6.5 °C 30.4 in /  1030.0 hPa WNW 4 mph /  6.4 km/h 4 mph /  6.4 km/h 52 % 0 in /  0.0 mm
19:29 61.7 °F /  16.5 °C 43 °F /  6.1 °C 30.4 in /  1030.0 hPa WNW 5 mph /  8.0 km/h 5 mph /  8.0 km/h 50 % 0 in /  0.0 mm
19:34 62.2 °F /  16.8 °C 44.2 °F /  6.8 °C 30.4 in /  1030.0 hPa West 4.6 mph /  7.4 km/h 4.6 mph /  7.4 km/h 52 % 0 in /  0.0 mm
19:35 62.2 °F /  16.8 °C 45 °F /  7.2 °C 30.4 in /  1030.0 hPa WNW 4.6 mph /  7.4 km/h 4.6 mph /  7.4 km/h 53 % 0 in /  0.0 mm
19:38 62.4 °F /  16.9 °C 45.7 °F /  7.6 °C 30.4 in /  1030.0 hPa WNW 5 mph /  8.0 km/h 5 mph /  8.0 km/h 54 % 0 in /  0.0 mm
19:41 63 °F /  17.2 °C 46.6 °F /  8.1 °C 30.4 in /  1030.0 hPa NNW 11.5 mph /  18.5 km/h 11.5 mph /  18.5 km/h 55 % 0 in /  0.0 mm
19:45 63.5 °F /  17.5 °C 47.1 °F /  8.4 °C 30.4 in /  1029.7 hPa NNW 8 mph /  12.9 km/h 13 mph /  20.9 km/h 55 % 0 in /  0.0 mm
19:46 64.2 °F /  17.9 °C 48.2 °F /  9.0 °C 30.4 in /  1029.7 hPa NNE 15 mph /  24.1 km/h 15 mph /  24.1 km/h 56 % 0 in /  0.0 mm
19:52 66.2 °F /  19.0 °C 49.1 °F /  9.5 °C 30.4 in /  1030.0 hPa NE 15 mph /  24.1 km/h 15 mph /  24.1 km/h 54 % 0 in /  0.0 mm
19:57 65.8 °F /  18.8 °C 48.4 °F /  9.1 °C 30.4 in /  1030.0 hPa NE 15 mph /  24.1 km/h 15 mph /  24.1 km/h 53 % 0 in /  0.0 mm
19:58 65.8 °F /  18.8 °C 48.4 °F /  9.1 °C 30.4 in /  1030.0 hPa NE 16.1 mph /  25.9 km/h 16.1 mph /  25.9 km/h 53 % 0 in /  0.0 mm
20:03 64.8 °F /  18.2 °C 46.8 °F /  8.2 °C 30.4 in /  1030.0 hPa ENE 13.8 mph /  22.2 km/h 13.8 mph /  22.2 km/h 52 % 0 in /  0.0 mm
20:09 64.6 °F /  18.1 °C 48 °F /  8.9 °C 30.4 in /  1030.0 hPa North 18.4 mph /  29.6 km/h 18.4 mph /  29.6 km/h 55 % 0 in /  0.0 mm
20:10 64.9 °F /  18.3 °C 48.4 °F /  9.1 °C 30.4 in /  1030.0 hPa ENE 19.6 mph /  31.5 km/h 19.6 mph /  31.5 km/h 55 % 0 in /  0.0 mm
20:15 66.9 °F /  19.4 °C 48.7 °F /  9.3 °C 30.4 in /  1030.0 hPa NNE 19.6 mph /  31.5 km/h 19.6 mph /  31.5 km/h 52 % 0 in /  0.0 mm
20:17 67.5 °F /  19.7 °C 49.6 °F /  9.8 °C 30.4 in /  1030.0 hPa NNW 17.3 mph /  27.8 km/h 17.3 mph /  27.8 km/h 53 % 0 in /  0.0 mm
20:22 68.4 °F /  20.2 °C 50 °F /  10.0 °C 30.4 in /  1029.7 hPa NNW 18.4 mph /  29.6 km/h 18.4 mph /  29.6 km/h 52 % 0 in /  0.0 mm
20:23 68.4 °F /  20.2 °C 49.6 °F /  9.8 °C 30.4 in /  1029.7 hPa NNW 15 mph /  24.1 km/h 15 mph /  24.1 km/h 51 % 0 in /  0.0 mm
20:28 66.6 °F /  19.2 °C 49.5 °F /  9.7 °C 30.4 in /  1030.0 hPa NNE 11.5 mph /  18.5 km/h 11.5 mph /  18.5 km/h 54 % 0 in /  0.0 mm
20:33 65.1 °F /  18.4 °C 48 °F /  8.9 °C 30.4 in /  1030.0 hPa NE 12 mph /  19.3 km/h 12 mph /  19.3 km/h 54 % 0 in /  0.0 mm
20:37 63.9 °F /  17.7 °C 46.4 °F /  8.0 °C 30.4 in /  1030.0 hPa NE 11.5 mph /  18.5 km/h 11.5 mph /  18.5 km/h 53 % 0 in /  0.0 mm
20:43 62.6 °F /  17.0 °C 46.2 °F /  7.9 °C 30.4 in /  1030.0 hPa NNE 11.5 mph /  18.5 km/h 11.5 mph /  18.5 km/h 55 % 0 in /  0.0 mm
20:49 62.2 °F /  16.8 °C 46.8 °F /  8.2 °C 30.4 in /  1029.7 hPa North 8.1 mph /  13.0 km/h 8.1 mph /  13.0 km/h 57 % 0 in /  0.0 mm
20:54 62.2 °F /  16.8 °C 46.9 °F /  8.3 °C 30.4 in /  1030.0 hPa NNE 9.2 mph /  14.8 km/h 9.2 mph /  14.8 km/h 57 % 0 in /  0.0 mm
20:59 62.2 °F /  16.8 °C 46.9 °F /  8.3 °C 30.4 in /  1029.7 hPa ENE 6.9 mph /  11.1 km/h 6.9 mph /  11.1 km/h 57 % 0 in /  0.0 mm
21:02 63 °F /  17.2 °C 48.4 °F /  9.1 °C 30.4 in /  1030.0 hPa NE 11.5 mph /  18.5 km/h 11.5 mph /  18.5 km/h 59 % 0 in /  0.0 mm
21:04 63.1 °F /  17.3 °C 48 °F /  8.9 °C 30.4 in /  1030.0 hPa ENE 10.4 mph /  16.7 km/h 10.4 mph /  16.7 km/h 58 % 0 in /  0.0 mm
21:15 63.1 °F /  17.3 °C 47.7 °F /  8.7 °C 30.4 in /  1030.0 hPa NE 3 mph /  4.8 km/h 8 mph /  12.9 km/h 57 % 0 in /  0.0 mm
21:16 63.1 °F /  17.3 °C 47.7 °F /  8.7 °C 30.4 in /  1029.7 hPa NE 6.9 mph /  11.1 km/h 6.9 mph /  11.1 km/h 57 % 0 in /  0.0 mm
21:21 62.4 °F /  16.9 °C 48.4 °F /  9.1 °C 30.4 in /  1029.7 hPa North 6.9 mph /  11.1 km/h 6.9 mph /  11.1 km/h 60 % 0 in /  0.0 mm
21:22 62.4 °F /  16.9 °C 48.4 °F /  9.1 °C 30.4 in /  1029.7 hPa North 9.2 mph /  14.8 km/h 9.2 mph /  14.8 km/h 60 % 0 in /  0.0 mm
21:24 62.2 °F /  16.8 °C 47.8 °F /  8.8 °C 30.4 in /  1029.7 hPa NE 7 mph /  11.3 km/h 7 mph /  11.3 km/h 59 % 0 in /  0.0 mm
21:27 62.8 °F /  17.1 °C 47.8 °F /  8.8 °C 30.4 in /  1029.7 hPa NE 9.2 mph /  14.8 km/h 9.2 mph /  14.8 km/h 58 % 0 in /  0.0 mm
21:32 63.3 °F /  17.4 °C 47.8 °F /  8.8 °C 30.4 in /  1029.3 hPa ENE 6.9 mph /  11.1 km/h 6.9 mph /  11.1 km/h 57 % 0 in /  0.0 mm
21:35 63.9 °F /  17.7 °C 48.7 °F /  9.3 °C 30.4 in /  1029.7 hPa ENE 8.1 mph /  13.0 km/h 8.1 mph /  13.0 km/h 58 % 0 in /  0.0 mm
21:40 63.3 °F /  17.4 °C 49.6 °F /  9.8 °C 30.4 in /  1029.7 hPa Calm     61 % 0 in /  0.0 mm
21:41 63.1 °F /  17.3 °C 49.5 °F /  9.7 °C 30.4 in /  1029.7 hPa Calm     61 % 0 in /  0.0 mm
21:46 63 °F /  17.2 °C 49.8 °F /  9.9 °C 30.4 in /  1029.7 hPa Calm     62 % 0 in /  0.0 mm
21:47 63 °F /  17.2 °C 49.8 °F /  9.9 °C 30.4 in /  1029.7 hPa Calm     62 % 0 in /  0.0 mm
21:52 63.1 °F /  17.3 °C 50 °F /  10.0 °C 30.4 in /  1029.7 hPa SE 3.5 mph /  5.6 km/h 3.6 mph /  5.8 km/h 62 % 0 in /  0.0 mm
21:57 63.7 °F /  17.6 °C 49.8 °F /  9.9 °C 30.4 in /  1029.7 hPa South 4.6 mph /  7.4 km/h 4.6 mph /  7.4 km/h 61 % 0 in /  0.0 mm
22:03 64.2 °F /  17.9 °C 52 °F /  11.1 °C 30.4 in /  1029.7 hPa SSW 13.8 mph /  22.2 km/h 13.8 mph /  22.2 km/h 64 % 0 in /  0.0 mm
22:08 63.9 °F /  17.7 °C 52.5 °F /  11.4 °C 30.4 in /  1030.0 hPa SSW 15 mph /  24.1 km/h 15 mph /  24.1 km/h 67 % 0 in /  0.0 mm
22:09 63.7 °F /  17.6 °C 53.2 °F /  11.8 °C 30.4 in /  1030.0 hPa South 15 mph /  24.1 km/h 15 mph /  24.1 km/h 69 % 0 in /  0.0 mm
22:13 62.8 °F /  17.1 °C 53.2 °F /  11.8 °C 30.4 in /  1029.7 hPa South 12.7 mph /  20.4 km/h 12.7 mph /  20.4 km/h 71 % 0 in /  0.0 mm
22:15 62.6 °F /  17.0 °C 53.1 °F /  11.7 °C 30.4 in /  1029.7 hPa South 13.8 mph /  22.2 km/h 13.8 mph /  22.2 km/h 71 % 0 in /  0.0 mm
22:19 62.2 °F /  16.8 °C 53.1 °F /  11.7 °C 30.4 in /  1030.0 hPa South 13.8 mph /  22.2 km/h 13.8 mph /  22.2 km/h 72 % 0 in /  0.0 mm
22:24 62.1 °F /  16.7 °C 53.2 °F /  11.8 °C 30.4 in /  1030.0 hPa South 13 mph /  20.9 km/h 13 mph /  20.9 km/h 73 % 0 in /  0.0 mm
22:25 62.1 °F /  16.7 °C 53.1 °F /  11.7 °C 30.4 in /  1030.0 hPa South 13.8 mph /  22.2 km/h 13.8 mph /  22.2 km/h 72 % 0 in /  0.0 mm
22:26 62.2 °F /  16.8 °C 53.1 °F /  11.7 °C 30.4 in /  1030.0 hPa South 12.7 mph /  20.4 km/h 12.7 mph /  20.4 km/h 72 % 0 in /  0.0 mm
22:31 62.4 °F /  16.9 °C 53.6 °F /  12.0 °C 30.4 in /  1030.0 hPa South 9.2 mph /  14.8 km/h 9.2 mph /  14.8 km/h 73 % 0 in /  0.0 mm
22:33 62.2 °F /  16.8 °C 53.4 °F /  11.9 °C 30.4 in /  1030.0 hPa South 6.9 mph /  11.1 km/h 6.9 mph /  11.1 km/h 73 % 0 in /  0.0 mm
22:36 62.1 °F /  16.7 °C 53.2 °F /  11.8 °C 30.4 in /  1030.0 hPa South 3.5 mph /  5.6 km/h 3.5 mph /  5.6 km/h 73 % 0 in /  0.0 mm
22:41 62.1 °F /  16.7 °C 53.8 °F /  12.1 °C 30.4 in /  1030.0 hPa South 4.6 mph /  7.4 km/h 4.6 mph /  7.4 km/h 74 % 0 in /  0.0 mm
22:43 62.1 °F /  16.7 °C 53.8 °F /  12.1 °C 30.4 in /  1030.0 hPa Calm     74 % 0 in /  0.0 mm
22:48 61.7 °F /  16.5 °C 52.5 °F /  11.4 °C 30.4 in /  1030.4 hPa ESE 2.3 mph /  3.7 km/h 2.3 mph /  3.7 km/h 72 % 0 in /  0.0 mm
22:49 61.7 °F /  16.5 °C 52.5 °F /  11.4 °C 30.4 in /  1030.4 hPa ESE 2.3 mph /  3.7 km/h 2.3 mph /  3.7 km/h 72 % 0 in /  0.0 mm
22:54 61.5 °F /  16.4 °C 52.3 °F /  11.3 °C 30.4 in /  1030.0 hPa Calm     72 % 0 in /  0.0 mm
23:01 61.5 °F /  16.4 °C 52.9 °F /  11.6 °C 30.4 in /  1030.0 hPa Calm     73 % 0 in /  0.0 mm
23:06 61.5 °F /  16.4 °C 52.5 °F /  11.4 °C 30.4 in /  1030.0 hPa East 3.5 mph /  5.6 km/h 3.5 mph /  5.6 km/h 72 % 0 in /  0.0 mm
23:07 61.5 °F /  16.4 °C 52.5 °F /  11.4 °C 30.4 in /  1030.4 hPa North 5 mph /  8.0 km/h 5 mph /  8.0 km/h 72 % 0 in /  0.0 mm
23:09 61.3 °F /  16.3 °C 51.4 °F /  10.8 °C 30.4 in /  1030.4 hPa North 5.8 mph /  9.3 km/h 5.8 mph /  9.3 km/h 70 % 0 in /  0.0 mm
23:12 61 °F /  16.1 °C 50.7 °F /  10.4 °C 30.4 in /  1030.4 hPa North 4 mph /  6.4 km/h 4 mph /  6.4 km/h 69 % 0 in /  0.0 mm
23:17 60.4 °F /  15.8 °C 50.4 °F /  10.2 °C 30.4 in /  1030.4 hPa NNE 5.8 mph /  9.3 km/h 5.8 mph /  9.3 km/h 69 % 0 in /  0.0 mm
23:22 60.3 °F /  15.7 °C 50 °F /  10.0 °C 30.4 in /  1030.4 hPa NNE 3.5 mph /  5.6 km/h 3.5 mph /  5.6 km/h 69 % 0 in /  0.0 mm
23:28 60.3 °F /  15.7 °C 49.6 °F /  9.8 °C 30.4 in /  1030.4 hPa North 3.5 mph /  5.6 km/h 3.5 mph /  5.6 km/h 68 % 0 in /  0.0 mm
23:33 60.4 °F /  15.8 °C 49.5 °F /  9.7 °C 30.4 in /  1030.4 hPa NNE 3.5 mph /  5.6 km/h 3.5 mph /  5.6 km/h 67 % 0 in /  0.0 mm
23:36 60.6 °F /  15.9 °C 49.3 °F /  9.6 °C 30.4 in /  1030.4 hPa NNE 4.6 mph /  7.4 km/h 4.8 mph /  7.7 km/h 66 % 0 in /  0.0 mm
23:39 60.8 °F /  16.0 °C 49.5 °F /  9.7 °C 30.4 in /  1030.0 hPa North 3.5 mph /  5.6 km/h 3.5 mph /  5.6 km/h 66 % 0 in /  0.0 mm
23:43 60.8 °F /  16.0 °C 48.9 °F /  9.4 °C 30.4 in /  1030.4 hPa NNE 3.5 mph /  5.6 km/h 3.5 mph /  5.6 km/h 65 % 0 in /  0.0 mm
23:46 61 °F /  16.1 °C 49.1 °F /  9.5 °C 30.4 in /  1030.4 hPa North 5 mph /  8.0 km/h 5 mph /  8.0 km/h 65 % 0 in /  0.0 mm
23:49 60.8 °F /  16.0 °C 48.9 °F /  9.4 °C 30.4 in /  1030.4 hPa NNW 3.5 mph /  5.6 km/h 3.5 mph /  5.6 km/h 65 % 0 in /  0.0 mm
23:52 60.6 °F /  15.9 °C 48.9 °F /  9.4 °C 30.4 in /  1030.0 hPa NNW 3.5 mph /  5.6 km/h 3.5 mph /  5.6 km/h 65 % 0 in /  0.0 mm
23:57 61 °F /  16.1 °C 48.7 °F /  9.3 °C 30.4 in /  1030.4 hPa NNW 5.8 mph /  9.3 km/h 5.8 mph /  9.3 km/h 64 % 0 in /  0.0 mm
Puerto Banus, Marbella
Elogios de Weather Underground - 2 mb

Guión original por  Jim McMurry - jmcmurry@mwt.net Adaptado para la plantilla por  Wim van der Kuil - Leuven-Template.eu

Usted encontrará nuestra información del tiempo también en:

Weather Underground

Iberian Peninsula Weather Network